sensor_id;sensor_type;location;lat;lon;timestamp;P1;P2;P0
70243;PMS7003;57634;51.136;17.024;2023-08-24T00:02:59;5;5;4
70243;PMS7003;57634;51.136;17.024;2023-08-24T00:06:03;6;5;3
70243;PMS7003;57634;51.136;17.024;2023-08-24T00:09:05;7;5;4
70243;PMS7003;57634;51.136;17.024;2023-08-24T00:12:33;5;4;3
70243;PMS7003;57634;51.136;17.024;2023-08-24T00:15:36;6;5;4
70243;PMS7003;57634;51.136;17.024;2023-08-24T00:18:37;5;4;4
70243;PMS7003;57634;51.136;17.024;2023-08-24T00:21:39;7;7;4
70243;PMS7003;57634;51.136;17.024;2023-08-24T00:24:40;6;6;5
70243;PMS7003;57634;51.136;17.024;2023-08-24T00:27:41;7;7;5
70243;PMS7003;57634;51.136;17.024;2023-08-24T00:30:43;7;7;5
70243;PMS7003;57634;51.136;17.024;2023-08-24T00:33:45;6;6;5
70243;PMS7003;57634;51.136;17.024;2023-08-24T00:36:46;6;5;3
70243;PMS7003;57634;51.136;17.024;2023-08-24T00:39:47;6;6;5
70243;PMS7003;57634;51.136;17.024;2023-08-24T00:42:48;8;7;5
70243;PMS7003;57634;51.136;17.024;2023-08-24T00:45:50;7;7;6
70243;PMS7003;57634;51.136;17.024;2023-08-24T00:48:53;6;6;5
70243;PMS7003;57634;51.136;17.024;2023-08-24T00:52:25;6;5;4
70243;PMS7003;57634;51.136;17.024;2023-08-24T00:55:28;8;7;5
70243;PMS7003;57634;51.136;17.024;2023-08-24T00:58:29;6;6;4
70243;PMS7003;57634;51.136;17.024;2023-08-24T01:01:32;6;6;5
70243;PMS7003;57634;51.136;17.024;2023-08-24T01:04:34;6;6;5
70243;PMS7003;57634;51.136;17.024;2023-08-24T01:07:37;8;7;6
70243;PMS7003;57634;51.136;17.024;2023-08-24T01:17:33;5;5;3
70243;PMS7003;57634;51.136;17.024;2023-08-24T01:20:36;5;5;4
70243;PMS7003;57634;51.136;17.024;2023-08-24T01:26:53;7;6;4
70243;PMS7003;57634;51.136;17.024;2023-08-24T01:29:55;4;4;3
70243;PMS7003;57634;51.136;17.024;2023-08-24T01:32:58;4;4;3
70243;PMS7003;57634;51.136;17.024;2023-08-24T01:35:59;4;4;3
70243;PMS7003;57634;51.136;17.024;2023-08-24T01:42:58;4;4;3
70243;PMS7003;57634;51.136;17.024;2023-08-24T01:45:54;5;4;3
70243;PMS7003;57634;51.136;17.024;2023-08-24T01:48:57;3;3;3
70243;PMS7003;57634;51.136;17.024;2023-08-24T01:52:00;5;4;3
70243;PMS7003;57634;51.136;17.024;2023-08-24T01:55:05;3;3;3
70243;PMS7003;57634;51.136;17.024;2023-08-24T01:58:07;6;5;3
70243;PMS7003;57634;51.136;17.024;2023-08-24T02:01:09;6;6;4
70243;PMS7003;57634;51.136;17.024;2023-08-24T02:04:12;5;4;3
70243;PMS7003;57634;51.136;17.024;2023-08-24T02:07:14;5;4;3
70243;PMS7003;57634;51.136;17.024;2023-08-24T02:10:42;5;5;4
70243;PMS7003;57634;51.136;17.024;2023-08-24T02:13:43;4;4;3
70243;PMS7003;57634;51.136;17.024;2023-08-24T02:16:44;4;4;3
70243;PMS7003;57634;51.136;17.024;2023-08-24T02:19:46;5;5;4
70243;PMS7003;57634;51.136;17.024;2023-08-24T02:22:47;6;6;5
70243;PMS7003;57634;51.136;17.024;2023-08-24T02:25:49;8;8;6
70243;PMS7003;57634;51.136;17.024;2023-08-24T02:28:50;8;8;5
70243;PMS7003;57634;51.136;17.024;2023-08-24T02:31:52;7;7;5
70243;PMS7003;57634;51.136;17.024;2023-08-24T02:34:53;9;9;6
70243;PMS7003;57634;51.136;17.024;2023-08-24T02:37:54;7;7;5
70243;PMS7003;57634;51.136;17.024;2023-08-24T02:41:04;10;8;7
70243;PMS7003;57634;51.136;17.024;2023-08-24T02:44:06;11;11;8
70243;PMS7003;57634;51.136;17.024;2023-08-24T02:47:34;11;10;7
70243;PMS7003;57634;51.136;17.024;2023-08-24T02:50:37;11;11;9
70243;PMS7003;57634;51.136;17.024;2023-08-24T02:53:39;9;9;8
70243;PMS7003;57634;51.136;17.024;2023-08-24T02:56:40;10;9;7
70243;PMS7003;57634;51.136;17.024;2023-08-24T02:59:42;9;8;6
70243;PMS7003;57634;51.136;17.024;2023-08-24T03:02:45;8;7;5
70243;PMS7003;57634;51.136;17.024;2023-08-24T03:08:59;8;7;5
70243;PMS7003;57634;51.136;17.024;2023-08-24T03:12:04;6;6;5
70243;PMS7003;57634;51.136;17.024;2023-08-24T03:15:06;4;4;3
70243;PMS7003;57634;51.136;17.024;2023-08-24T03:18:34;6;5;4
70243;PMS7003;57634;51.136;17.024;2023-08-24T03:21:35;6;5;4
70243;PMS7003;57634;51.136;17.024;2023-08-24T03:24:36;7;7;5
70243;PMS7003;57634;51.136;17.024;2023-08-24T03:27:38;6;5;4
70243;PMS7003;57634;51.136;17.024;2023-08-24T03:30:44;7;6;4
70243;PMS7003;57634;51.136;17.024;2023-08-24T03:33:49;7;7;5
70243;PMS7003;57634;51.136;17.024;2023-08-24T03:36:50;5;5;4
70243;PMS7003;57634;51.136;17.024;2023-08-24T03:39:52;6;6;4
70243;PMS7003;57634;51.136;17.024;2023-08-24T03:42:53;6;5;5
70243;PMS7003;57634;51.136;17.024;2023-08-24T03:45:54;7;6;4
70243;PMS7003;57634;51.136;17.024;2023-08-24T03:48:55;7;7;5
70243;PMS7003;57634;51.136;17.024;2023-08-24T03:51:57;8;8;5
70243;PMS7003;57634;51.136;17.024;2023-08-24T03:54:58;7;6;5
70243;PMS7003;57634;51.136;17.024;2023-08-24T03:58:26;7;6;5
70243;PMS7003;57634;51.136;17.024;2023-08-24T04:01:27;6;6;5
70243;PMS7003;57634;51.136;17.024;2023-08-24T04:04:31;6;5;5
70243;PMS7003;57634;51.136;17.024;2023-08-24T04:07:33;6;5;4
70243;PMS7003;57634;51.136;17.024;2023-08-24T04:10:38;6;6;5
70243;PMS7003;57634;51.136;17.024;2023-08-24T04:13:39;6;6;5
70243;PMS7003;57634;51.136;17.024;2023-08-24T04:16:41;5;5;5
70243;PMS7003;57634;51.136;17.024;2023-08-24T04:19:42;5;5;4
70243;PMS7003;57634;51.136;17.024;2023-08-24T04:22:44;6;6;4
70243;PMS7003;57634;51.136;17.024;2023-08-24T04:25:45;5;5;5
70243;PMS7003;57634;51.136;17.024;2023-08-24T04:28:47;5;5;4
70243;PMS7003;57634;51.136;17.024;2023-08-24T04:31:48;6;6;5
70243;PMS7003;57634;51.136;17.024;2023-08-24T04:34:50;5;5;4
70243;PMS7003;57634;51.136;17.024;2023-08-24T04:38:17;5;5;4
70243;PMS7003;57634;51.136;17.024;2023-08-24T04:41:18;10;9;7
70243;PMS7003;57634;51.136;17.024;2023-08-24T04:44:19;13;10;8
70243;PMS7003;57634;51.136;17.024;2023-08-24T04:47:21;10;10;7
70243;PMS7003;57634;51.136;17.024;2023-08-24T04:50:22;12;11;8
70243;PMS7003;57634;51.136;17.024;2023-08-24T04:53:24;14;12;9
70243;PMS7003;57634;51.136;17.024;2023-08-24T04:56:26;8;8;6
70243;PMS7003;57634;51.136;17.024;2023-08-24T04:59:28;7;7;5
70243;PMS7003;57634;51.136;17.024;2023-08-24T05:02:29;7;7;6
70243;PMS7003;57634;51.136;17.024;2023-08-24T05:05:31;6;6;4
70243;PMS7003;57634;51.136;17.024;2023-08-24T05:08:33;4;4;3
70243;PMS7003;57634;51.136;17.024;2023-08-24T05:11:35;7;6;5
70243;PMS7003;57634;51.136;17.024;2023-08-24T05:14:36;6;6;5
70243;PMS7003;57634;51.136;17.024;2023-08-24T05:17:37;6;6;5
70243;PMS7003;57634;51.136;17.024;2023-08-24T05:21:05;4;4;3
70243;PMS7003;57634;51.136;17.024;2023-08-24T05:24:06;5;4;4
70243;PMS7003;57634;51.136;17.024;2023-08-24T05:27:08;5;5;3
70243;PMS7003;57634;51.136;17.024;2023-08-24T05:30:10;5;5;4
70243;PMS7003;57634;51.136;17.024;2023-08-24T05:33:12;4;4;4
70243;PMS7003;57634;51.136;17.024;2023-08-24T05:36:13;5;4;3
70243;PMS7003;57634;51.136;17.024;2023-08-24T05:39:14;4;4;4
70243;PMS7003;57634;51.136;17.024;2023-08-24T05:42:15;5;5;4
70243;PMS7003;57634;51.136;17.024;2023-08-24T05:45:17;6;5;4
70243;PMS7003;57634;51.136;17.024;2023-08-24T05:48:18;5;4;3
70243;PMS7003;57634;51.136;17.024;2023-08-24T05:51:20;3;3;3
70243;PMS7003;57634;51.136;17.024;2023-08-24T05:54:21;3;3;3
70243;PMS7003;57634;51.136;17.024;2023-08-24T05:57:23;3;3;2
70243;PMS7003;57634;51.136;17.024;2023-08-24T06:00:24;2;2;2
70243;PMS7003;57634;51.136;17.024;2023-08-24T06:03:51;2;2;1
70243;PMS7003;57634;51.136;17.024;2023-08-24T06:06:52;2;2;2
70243;PMS7003;57634;51.136;17.024;2023-08-24T06:09:54;1;1;1
70243;PMS7003;57634;51.136;17.024;2023-08-24T06:12:55;1;1;1
70243;PMS7003;57634;51.136;17.024;2023-08-24T06:15:56;3;3;2
70243;PMS7003;57634;51.136;17.024;2023-08-24T06:18:57;1;1;1
70243;PMS7003;57634;51.136;17.024;2023-08-24T06:21:58;2;2;2
70243;PMS7003;57634;51.136;17.024;2023-08-24T06:25:00;1;1;1
70243;PMS7003;57634;51.136;17.024;2023-08-24T06:28:01;2;2;1
70243;PMS7003;57634;51.136;17.024;2023-08-24T06:31:05;2;2;2
70243;PMS7003;57634;51.136;17.024;2023-08-24T06:34:08;2;2;1
70243;PMS7003;57634;51.136;17.024;2023-08-24T06:37:10;2;2;1
70243;PMS7003;57634;51.136;17.024;2023-08-24T06:40:11;2;2;1
70243;PMS7003;57634;51.136;17.024;2023-08-24T06:43:41;1;1;0
70243;PMS7003;57634;51.136;17.024;2023-08-24T06:46:42;1;1;1
70243;PMS7003;57634;51.136;17.024;2023-08-24T06:49:44;2;2;2
70243;PMS7003;57634;51.136;17.024;2023-08-24T06:52:46;0;0;0
70243;PMS7003;57634;51.136;17.024;2023-08-24T06:55:53;2;2;1
70243;PMS7003;57634;51.136;17.024;2023-08-24T06:58:57;1;1;1
70243;PMS7003;57634;51.136;17.024;2023-08-24T07:01:58;2;2;1
70243;PMS7003;57634;51.136;17.024;2023-08-24T07:05:00;1;1;1
70243;PMS7003;57634;51.136;17.024;2023-08-24T07:08:01;1;1;1
70243;PMS7003;57634;51.136;17.024;2023-08-24T07:11:04;1;1;1
70243;PMS7003;57634;51.136;17.024;2023-08-24T07:14:06;1;1;1
70243;PMS7003;57634;51.136;17.024;2023-08-24T07:17:07;1;1;1
70243;PMS7003;57634;51.136;17.024;2023-08-24T07:20:34;0;0;0
70243;PMS7003;57634;51.136;17.024;2023-08-24T07:23:36;0;0;0
70243;PMS7003;57634;51.136;17.024;2023-08-24T07:26:39;2;2;2
70243;PMS7003;57634;51.136;17.024;2023-08-24T07:29:43;1;1;1
70243;PMS7003;57634;51.136;17.024;2023-08-24T07:32:44;1;1;1
70243;PMS7003;57634;51.136;17.024;2023-08-24T07:35:46;1;0;0
70243;PMS7003;57634;51.136;17.024;2023-08-24T07:38:47;2;1;1
70243;PMS7003;57634;51.136;17.024;2023-08-24T07:41:48;1;1;1
70243;PMS7003;57634;51.136;17.024;2023-08-24T07:44:49;0;0;0
70243;PMS7003;57634;51.136;17.024;2023-08-24T07:47:51;1;1;1
70243;PMS7003;57634;51.136;17.024;2023-08-24T07:50:54;1;1;0
70243;PMS7003;57634;51.136;17.024;2023-08-24T07:53:55;0;0;0
70243;PMS7003;57634;51.136;17.024;2023-08-24T07:56:57;1;1;0
70243;PMS7003;57634;51.136;17.024;2023-08-24T08:00:24;0;0;0
70243;PMS7003;57634;51.136;17.024;2023-08-24T08:03:26;0;0;0
70243;PMS7003;57634;51.136;17.024;2023-08-24T08:06:28;2;2;1
70243;PMS7003;57634;51.136;17.024;2023-08-24T08:09:29;0;0;0
70243;PMS7003;57634;51.136;17.024;2023-08-24T08:12:31;0;0;0
70243;PMS7003;57634;51.136;17.024;2023-08-24T08:15:32;0;0;0
70243;PMS7003;57634;51.136;17.024;2023-08-24T08:18:34;0;0;0
70243;PMS7003;57634;51.136;17.024;2023-08-24T08:21:36;0;0;0
70243;PMS7003;57634;51.136;17.024;2023-08-24T08:24:38;0;0;0
70243;PMS7003;57634;51.136;17.024;2023-08-24T08:27:39;0;0;0
70243;PMS7003;57634;51.136;17.024;2023-08-24T08:30:41;0;0;0
70243;PMS7003;57634;51.136;17.024;2023-08-24T08:33:42;0;0;0
70243;PMS7003;57634;51.136;17.024;2023-08-24T08:36:44;0;0;0
70243;PMS7003;57634;51.136;17.024;2023-08-24T08:39:45;0;0;0
70243;PMS7003;57634;51.136;17.024;2023-08-24T08:42:46;0;0;0
70243;PMS7003;57634;51.136;17.024;2023-08-24T08:46:14;0;0;0
70243;PMS7003;57634;51.136;17.024;2023-08-24T08:49:17;0;0;0
70243;PMS7003;57634;51.136;17.024;2023-08-24T08:52:20;0;0;0
70243;PMS7003;57634;51.136;17.024;2023-08-24T08:55:22;0;0;0
70243;PMS7003;57634;51.136;17.024;2023-08-24T08:58:23;0;0;0
70243;PMS7003;57634;51.136;17.024;2023-08-24T09:01:29;0;0;0
70243;PMS7003;57634;51.136;17.024;2023-08-24T09:04:31;0;0;0
70243;PMS7003;57634;51.136;17.024;2023-08-24T09:07:34;0;0;0
70243;PMS7003;57634;51.136;17.024;2023-08-24T09:10:36;0;0;0
70243;PMS7003;57634;51.136;17.024;2023-08-24T09:13:37;0;0;0
70243;PMS7003;57634;51.136;17.024;2023-08-24T09:16:39;0;0;0
70243;PMS7003;57634;51.136;17.024;2023-08-24T09:19:40;0;0;0
70243;PMS7003;57634;51.136;17.024;2023-08-24T09:23:13;0;0;0
70243;PMS7003;57634;51.136;17.024;2023-08-24T09:29:36;0;0;0
70243;PMS7003;57634;51.136;17.024;2023-08-24T09:32:39;0;0;0
70243;PMS7003;57634;51.136;17.024;2023-08-24T09:35:41;0;0;0
70243;PMS7003;57634;51.136;17.024;2023-08-24T09:38:46;0;0;0
70243;PMS7003;57634;51.136;17.024;2023-08-24T09:42:24;0;0;0
70243;PMS7003;57634;51.136;17.024;2023-08-24T09:45:27;0;0;0
70243;PMS7003;57634;51.136;17.024;2023-08-24T09:48:29;0;0;0
70243;PMS7003;57634;51.136;17.024;2023-08-24T09:51:33;0;0;0
70243;PMS7003;57634;51.136;17.024;2023-08-24T09:54:36;0;0;0
70243;PMS7003;57634;51.136;17.024;2023-08-24T09:57:39;0;0;0
70243;PMS7003;57634;51.136;17.024;2023-08-24T10:00:41;0;0;0
70243;PMS7003;57634;51.136;17.024;2023-08-24T10:03:44;0;0;0
70243;PMS7003;57634;51.136;17.024;2023-08-24T10:06:47;1;1;1
70243;PMS7003;57634;51.136;17.024;2023-08-24T10:10:20;0;0;0
70243;PMS7003;57634;51.136;17.024;2023-08-24T10:13:50;1;1;1
70243;PMS7003;57634;51.136;17.024;2023-08-24T10:16:37;1;1;1
70243;PMS7003;57634;51.136;17.024;2023-08-24T10:19:40;2;2;1
70243;PMS7003;57634;51.136;17.024;2023-08-24T10:22:43;0;0;0
70243;PMS7003;57634;51.136;17.024;2023-08-24T10:25:47;2;2;1
70243;PMS7003;57634;51.136;17.024;2023-08-24T10:28:53;1;1;1
70243;PMS7003;57634;51.136;17.024;2023-08-24T10:31:57;3;2;1
70243;PMS7003;57634;51.136;17.024;2023-08-24T10:35:26;2;2;1
70243;PMS7003;57634;51.136;17.024;2023-08-24T10:38:28;1;1;1
70243;PMS7003;57634;51.136;17.024;2023-08-24T10:41:52;2;2;1
70243;PMS7003;57634;51.136;17.024;2023-08-24T10:44:45;2;2;1
70243;PMS7003;57634;51.136;17.024;2023-08-24T10:47:52;2;2;2
70243;PMS7003;57634;51.136;17.024;2023-08-24T10:54:36;2;2;1
70243;PMS7003;57634;51.136;17.024;2023-08-24T10:57:55;0;0;0
70243;PMS7003;57634;51.136;17.024;2023-08-24T11:01:00;1;1;1
70243;PMS7003;57634;51.136;17.024;2023-08-24T11:04:03;1;1;1
70243;PMS7003;57634;51.136;17.024;2023-08-24T11:07:08;2;2;1
70243;PMS7003;57634;51.136;17.024;2023-08-24T11:10:16;2;2;1
70243;PMS7003;57634;51.136;17.024;2023-08-24T11:13:18;2;2;2
70243;PMS7003;57634;51.136;17.024;2023-08-24T11:16:49;4;3;3
70243;PMS7003;57634;51.136;17.024;2023-08-24T11:19:50;1;1;1
70243;PMS7003;57634;51.136;17.024;2023-08-24T11:22:55;4;4;3
70243;PMS7003;57634;51.136;17.024;2023-08-24T11:25:58;3;3;2
70243;PMS7003;57634;51.136;17.024;2023-08-24T11:29:04;2;2;2
70243;PMS7003;57634;51.136;17.024;2023-08-24T11:32:07;5;2;2
70243;PMS7003;57634;51.136;17.024;2023-08-24T11:35:10;3;2;2
70243;PMS7003;57634;51.136;17.024;2023-08-24T11:38:13;1;1;1
70243;PMS7003;57634;51.136;17.024;2023-08-24T11:41:15;2;2;1
70243;PMS7003;57634;51.136;17.024;2023-08-24T11:44:18;3;3;3
70243;PMS7003;57634;51.136;17.024;2023-08-24T11:47:48;2;2;2
70243;PMS7003;57634;51.136;17.024;2023-08-24T11:50:50;4;4;2
70243;PMS7003;57634;51.136;17.024;2023-08-24T11:53:52;3;3;3
70243;PMS7003;57634;51.136;17.024;2023-08-24T11:56:54;2;2;1
70243;PMS7003;57634;51.136;17.024;2023-08-24T11:59:55;2;2;2
70243;PMS7003;57634;51.136;17.024;2023-08-24T12:02:57;1;1;1
70243;PMS7003;57634;51.136;17.024;2023-08-24T12:05:59;2;2;2
70243;PMS7003;57634;51.136;17.024;2023-08-24T12:09:07;3;2;2
70243;PMS7003;57634;51.136;17.024;2023-08-24T12:12:14;2;2;1
70243;PMS7003;57634;51.136;17.024;2023-08-24T12:15:19;3;2;1
70243;PMS7003;57634;51.136;17.024;2023-08-24T12:18:59;2;2;2
70243;PMS7003;57634;51.136;17.024;2023-08-24T12:22:00;3;3;2
70243;PMS7003;57634;51.136;17.024;2023-08-24T12:25:01;3;3;2
70243;PMS7003;57634;51.136;17.024;2023-08-24T12:31:17;2;2;2
70243;PMS7003;57634;51.136;17.024;2023-08-24T12:34:19;2;2;2
70243;PMS7003;57634;51.136;17.024;2023-08-24T12:37:20;3;3;2
70243;PMS7003;57634;51.136;17.024;2023-08-24T12:40:22;2;2;1
70243;PMS7003;57634;51.136;17.024;2023-08-24T12:43:54;2;2;1
70243;PMS7003;57634;51.136;17.024;2023-08-24T12:46:56;1;1;1
70243;PMS7003;57634;51.136;17.024;2023-08-24T12:49:57;2;2;2
70243;PMS7003;57634;51.136;17.024;2023-08-24T12:52:58;1;1;1
70243;PMS7003;57634;51.136;17.024;2023-08-24T12:56:01;2;1;1
70243;PMS7003;57634;51.136;17.024;2023-08-24T12:59:02;2;2;2
70243;PMS7003;57634;51.136;17.024;2023-08-24T13:02:04;3;0;0
70243;PMS7003;57634;51.136;17.024;2023-08-24T13:05:05;1;1;1
70243;PMS7003;57634;51.136;17.024;2023-08-24T13:08:07;2;2;1
70243;PMS7003;57634;51.136;17.024;2023-08-24T13:11:08;2;2;2
70243;PMS7003;57634;51.136;17.024;2023-08-24T13:14:09;2;2;1
70243;PMS7003;57634;51.136;17.024;2023-08-24T13:17:11;2;2;1
70243;PMS7003;57634;51.136;17.024;2023-08-24T13:20:12;2;2;2
70243;PMS7003;57634;51.136;17.024;2023-08-24T13:23:13;3;3;1
70243;PMS7003;57634;51.136;17.024;2023-08-24T13:26:41;3;3;2
70243;PMS7003;57634;51.136;17.024;2023-08-24T13:29:43;3;3;2
70243;PMS7003;57634;51.136;17.024;2023-08-24T13:32:45;2;2;2
70243;PMS7003;57634;51.136;17.024;2023-08-24T13:35:46;3;3;2
70243;PMS7003;57634;51.136;17.024;2023-08-24T13:38:48;3;3;1
70243;PMS7003;57634;51.136;17.024;2023-08-24T13:41:51;3;2;2
70243;PMS7003;57634;51.136;17.024;2023-08-24T13:44:52;1;1;1
70243;PMS7003;57634;51.136;17.024;2023-08-24T13:47:54;3;3;2
70243;PMS7003;57634;51.136;17.024;2023-08-24T13:50:55;2;2;1
70243;PMS7003;57634;51.136;17.024;2023-08-24T13:53:57;2;2;2
70243;PMS7003;57634;51.136;17.024;2023-08-24T13:56:59;2;2;1
70243;PMS7003;57634;51.136;17.024;2023-08-24T14:00:03;2;2;1
70243;PMS7003;57634;51.136;17.024;2023-08-24T14:03:34;1;1;1
70243;PMS7003;57634;51.136;17.024;2023-08-24T14:06:36;2;2;2
70243;PMS7003;57634;51.136;17.024;2023-08-24T14:12:42;3;3;2
70243;PMS7003;57634;51.136;17.024;2023-08-24T14:15:43;2;2;2
70243;PMS7003;57634;51.136;17.024;2023-08-24T14:18:45;2;2;2
70243;PMS7003;57634;51.136;17.024;2023-08-24T14:21:47;2;2;2
70243;PMS7003;57634;51.136;17.024;2023-08-24T14:24:48;3;3;2
70243;PMS7003;57634;51.136;17.024;2023-08-24T14:27:50;3;3;3
70243;PMS7003;57634;51.136;17.024;2023-08-24T14:30:52;3;2;2
70243;PMS7003;57634;51.136;17.024;2023-08-24T14:33:54;4;3;3
70243;PMS7003;57634;51.136;17.024;2023-08-24T14:36:55;4;4;3
70243;PMS7003;57634;51.136;17.024;2023-08-24T14:39:57;6;4;3
70243;PMS7003;57634;51.136;17.024;2023-08-24T14:43:24;13;12;10
70243;PMS7003;57634;51.136;17.024;2023-08-24T14:46:26;5;5;3
70243;PMS7003;57634;51.136;17.024;2023-08-24T14:49:27;5;5;4
70243;PMS7003;57634;51.136;17.024;2023-08-24T14:52:29;1;1;0
70243;PMS7003;57634;51.136;17.024;2023-08-24T14:55:31;3;3;3
70243;PMS7003;57634;51.136;17.024;2023-08-24T14:58:32;5;5;4
70243;PMS7003;57634;51.136;17.024;2023-08-24T15:01:35;6;6;5
70243;PMS7003;57634;51.136;17.024;2023-08-24T15:04:36;2;2;1
70243;PMS7003;57634;51.136;17.024;2023-08-24T15:07:37;4;4;3
70243;PMS7003;57634;51.136;17.024;2023-08-24T15:10:39;4;4;3
70243;PMS7003;57634;51.136;17.024;2023-08-24T15:13:40;3;3;2
70243;PMS7003;57634;51.136;17.024;2023-08-24T15:16:41;4;4;3
70243;PMS7003;57634;51.136;17.024;2023-08-24T15:19:43;5;5;3
70243;PMS7003;57634;51.136;17.024;2023-08-24T15:22:44;7;7;6
70243;PMS7003;57634;51.136;17.024;2023-08-24T15:26:11;4;4;3
70243;PMS7003;57634;51.136;17.024;2023-08-24T15:29:15;4;4;3
70243;PMS7003;57634;51.136;17.024;2023-08-24T15:32:19;4;4;4
70243;PMS7003;57634;51.136;17.024;2023-08-24T15:35:20;4;4;4
70243;PMS7003;57634;51.136;17.024;2023-08-24T15:38:22;5;5;3
70243;PMS7003;57634;51.136;17.024;2023-08-24T15:41:24;5;5;4
70243;PMS7003;57634;51.136;17.024;2023-08-24T15:44:26;5;5;4
70243;PMS7003;57634;51.136;17.024;2023-08-24T15:47:27;7;7;5
70243;PMS7003;57634;51.136;17.024;2023-08-24T15:50:29;5;5;4
70243;PMS7003;57634;51.136;17.024;2023-08-24T15:53:30;4;4;3
70243;PMS7003;57634;51.136;17.024;2023-08-24T15:56:32;4;3;2
70243;PMS7003;57634;51.136;17.024;2023-08-24T15:59:33;6;4;3
70243;PMS7003;57634;51.136;17.024;2023-08-24T16:02:35;4;4;3
70243;PMS7003;57634;51.136;17.024;2023-08-24T16:06:02;3;3;2
70243;PMS7003;57634;51.136;17.024;2023-08-24T16:09:03;3;2;2
70243;PMS7003;57634;51.136;17.024;2023-08-24T16:12:04;3;3;3
70243;PMS7003;57634;51.136;17.024;2023-08-24T16:15:06;3;3;3
70243;PMS7003;57634;51.136;17.024;2023-08-24T16:18:08;5;5;3
70243;PMS7003;57634;51.136;17.024;2023-08-24T16:21:10;7;7;7
70243;PMS7003;57634;51.136;17.024;2023-08-24T16:24:11;5;5;4
70243;PMS7003;57634;51.136;17.024;2023-08-24T16:27:13;6;6;5
70243;PMS7003;57634;51.136;17.024;2023-08-24T16:30:14;6;6;5
70243;PMS7003;57634;51.136;17.024;2023-08-24T16:33:16;6;6;5
70243;PMS7003;57634;51.136;17.024;2023-08-24T16:36:19;5;5;4
70243;PMS7003;57634;51.136;17.024;2023-08-24T16:39:20;5;5;3
70243;PMS7003;57634;51.136;17.024;2023-08-24T16:42:22;4;4;3
70243;PMS7003;57634;51.136;17.024;2023-08-24T16:45:24;5;4;3
70243;PMS7003;57634;51.136;17.024;2023-08-24T16:48:50;3;3;3
70243;PMS7003;57634;51.136;17.024;2023-08-24T16:51:52;5;5;4
70243;PMS7003;57634;51.136;17.024;2023-08-24T16:57:10;6;6;5
70243;PMS7003;57634;51.136;17.024;2023-08-24T17:00:12;5;5;4
70243;PMS7003;57634;51.136;17.024;2023-08-24T17:03:13;5;5;4
70243;PMS7003;57634;51.136;17.024;2023-08-24T17:06:15;4;4;4
70243;PMS7003;57634;51.136;17.024;2023-08-24T17:09:17;5;5;4
70243;PMS7003;57634;51.136;17.024;2023-08-24T17:12:18;4;4;3
70243;PMS7003;57634;51.136;17.024;2023-08-24T17:15:19;6;6;5
70243;PMS7003;57634;51.136;17.024;2023-08-24T17:18:20;7;7;6
70243;PMS7003;57634;51.136;17.024;2023-08-24T17:21:22;6;6;5
70243;PMS7003;57634;51.136;17.024;2023-08-24T17:24:23;6;5;5
70243;PMS7003;57634;51.136;17.024;2023-08-24T17:27:25;6;6;5
70243;PMS7003;57634;51.136;17.024;2023-08-24T17:30:26;6;6;5
70243;PMS7003;57634;51.136;17.024;2023-08-24T17:33:28;7;7;5
70243;PMS7003;57634;51.136;17.024;2023-08-24T17:36:57;5;5;4
70243;PMS7003;57634;51.136;17.024;2023-08-24T17:39:58;6;6;5
70243;PMS7003;57634;51.136;17.024;2023-08-24T17:43:00;5;5;5
70243;PMS7003;57634;51.136;17.024;2023-08-24T17:46:01;7;7;6
70243;PMS7003;57634;51.136;17.024;2023-08-24T17:49:02;6;6;5
70243;PMS7003;57634;51.136;17.024;2023-08-24T17:52:05;7;6;5
70243;PMS7003;57634;51.136;17.024;2023-08-24T17:55:07;5;4;4
70243;PMS7003;57634;51.136;17.024;2023-08-24T17:58:10;7;6;5
70243;PMS7003;57634;51.136;17.024;2023-08-24T18:01:11;5;5;4
70243;PMS7003;57634;51.136;17.024;2023-08-24T18:04:13;7;7;5
70243;PMS7003;57634;51.136;17.024;2023-08-24T18:07:14;7;7;6
70243;PMS7003;57634;51.136;17.024;2023-08-24T18:10:17;9;9;7
70243;PMS7003;57634;51.136;17.024;2023-08-24T18:13:18;5;5;4
70243;PMS7003;57634;51.136;17.024;2023-08-24T18:16:48;12;11;8
70243;PMS7003;57634;51.136;17.024;2023-08-24T18:19:49;8;8;6
70243;PMS7003;57634;51.136;17.024;2023-08-24T18:22:50;7;7;6
70243;PMS7003;57634;51.136;17.024;2023-08-24T18:25:52;7;7;6
70243;PMS7003;57634;51.136;17.024;2023-08-24T18:28:53;8;8;6
70243;PMS7003;57634;51.136;17.024;2023-08-24T18:31:55;9;9;7
70243;PMS7003;57634;51.136;17.024;2023-08-24T18:34:56;8;8;6
70243;PMS7003;57634;51.136;17.024;2023-08-24T18:38:01;9;8;6
70243;PMS7003;57634;51.136;17.024;2023-08-24T18:41:05;7;7;5
70243;PMS7003;57634;51.136;17.024;2023-08-24T18:44:06;7;7;7
70243;PMS7003;57634;51.136;17.024;2023-08-24T18:47:08;8;8;8
70243;PMS7003;57634;51.136;17.024;2023-08-24T18:50:09;8;7;7
70243;PMS7003;57634;51.136;17.024;2023-08-24T18:53:10;7;7;6
70243;PMS7003;57634;51.136;17.024;2023-08-24T18:56:38;11;8;7
70243;PMS7003;57634;51.136;17.024;2023-08-24T18:59:39;8;8;7
70243;PMS7003;57634;51.136;17.024;2023-08-24T19:02:41;9;9;7
70243;PMS7003;57634;51.136;17.024;2023-08-24T19:05:43;11;11;9
70243;PMS7003;57634;51.136;17.024;2023-08-24T19:08:47;10;9;8
70243;PMS7003;57634;51.136;17.024;2023-08-24T19:11:48;9;9;7
70243;PMS7003;57634;51.136;17.024;2023-08-24T19:14:50;8;8;7
70243;PMS7003;57634;51.136;17.024;2023-08-24T19:17:51;9;9;8
70243;PMS7003;57634;51.136;17.024;2023-08-24T19:20:52;9;9;8
70243;PMS7003;57634;51.136;17.024;2023-08-24T19:23:54;10;10;8
70243;PMS7003;57634;51.136;17.024;2023-08-24T19:26:55;10;10;8
70243;PMS7003;57634;51.136;17.024;2023-08-24T19:29:59;13;11;9
70243;PMS7003;57634;51.136;17.024;2023-08-24T19:33:00;21;19;14
70243;PMS7003;57634;51.136;17.024;2023-08-24T19:36:28;10;10;8
70243;PMS7003;57634;51.136;17.024;2023-08-24T19:39:29;10;9;7
70243;PMS7003;57634;51.136;17.024;2023-08-24T19:42:31;13;13;10
70243;PMS7003;57634;51.136;17.024;2023-08-24T19:45:32;11;10;9
70243;PMS7003;57634;51.136;17.024;2023-08-24T19:48:36;12;10;9
70243;PMS7003;57634;51.136;17.024;2023-08-24T19:51:38;15;13;11
70243;PMS7003;57634;51.136;17.024;2023-08-24T19:54:40;10;10;8
70243;PMS7003;57634;51.136;17.024;2023-08-24T19:57:41;9;9;8
70243;PMS7003;57634;51.136;17.024;2023-08-24T20:00:43;14;12;10
70243;PMS7003;57634;51.136;17.024;2023-08-24T20:03:46;13;11;8
70243;PMS7003;57634;51.136;17.024;2023-08-24T20:06:47;10;9;8
70243;PMS7003;57634;51.136;17.024;2023-08-24T20:09:49;9;8;8
70243;PMS7003;57634;51.136;17.024;2023-08-24T20:12:50;11;11;9
70243;PMS7003;57634;51.136;17.024;2023-08-24T20:16:17;12;12;10
70243;PMS7003;57634;51.136;17.024;2023-08-24T20:19:19;15;15;11
70243;PMS7003;57634;51.136;17.024;2023-08-24T20:22:21;13;13;10
70243;PMS7003;57634;51.136;17.024;2023-08-24T20:25:23;13;12;10
70243;PMS7003;57634;51.136;17.024;2023-08-24T20:28:24;11;11;8
70243;PMS7003;57634;51.136;17.024;2023-08-24T20:31:32;12;12;9
70243;PMS7003;57634;51.136;17.024;2023-08-24T20:34:34;10;10;9
70243;PMS7003;57634;51.136;17.024;2023-08-24T20:37:35;10;10;8
70243;PMS7003;57634;51.136;17.024;2023-08-24T20:40:37;13;11;10
70243;PMS7003;57634;51.136;17.024;2023-08-24T20:43:39;14;14;11
70243;PMS7003;57634;51.136;17.024;2023-08-24T20:46:42;13;13;10
70243;PMS7003;57634;51.136;17.024;2023-08-24T20:49:45;13;13;10
70243;PMS7003;57634;51.136;17.024;2023-08-24T20:53:18;12;12;9